Skamokawa, Washington
Current Conditions -  °F | °C
As of 9:55 AM on Sunday 25 Jan 2015 (Local Time) from KAST Reporting Station
Clear Clear  
Wind Chill: 52°   Ceiling: Unl
Heat Index: 52°   Visibility: 10mi
Dew Point: 49°   Wind: 6mph
Humidity: 89%   Direction: 60°ENE
Pressure: 30.12"   Gusts: NA
Location:  46.27°N, 123.46°W
Report Text: KAST 251755Z AUTO 06005KT 10SM CLR 11/09 A3012 RMK AO2 SLP198 T01110094 10111 20072 56003
Loading
Personal Weather Stations






























Interactive Weather Map New forecast layout! Learn more

10-Day Weather Forecast

Advertisements
Track Severe Weather on mobile